createdAt,value
2018-02-14T00:00:02.316Z,16.08
2018-02-14T00:00:36.320Z,16.80
2018-02-14T00:01:10.218Z,15.98
2018-02-14T00:01:44.655Z,17.75
2018-02-14T00:02:18.348Z,15.68
2018-02-14T00:02:52.049Z,16.30
2018-02-14T00:03:25.713Z,16.30
2018-02-14T00:04:00.157Z,17.23
2018-02-14T00:04:33.872Z,16.48
2018-02-14T00:05:07.545Z,16.75
2018-02-14T00:05:41.419Z,16.92
2018-02-14T00:06:16.454Z,16.92
2018-02-14T00:06:50.117Z,15.48
2018-02-14T00:07:23.805Z,16.23
2018-02-14T00:07:57.486Z,16.30
2018-02-14T00:08:31.166Z,17.10
2018-02-14T00:09:04.952Z,16.65
2018-02-14T00:09:39.413Z,17.05
2018-02-14T00:10:13.184Z,15.85
2018-02-14T00:10:46.855Z,17.12
2018-02-14T00:11:20.663Z,17.08
2018-02-14T00:11:54.338Z,17.02
2018-02-14T00:12:28.022Z,16.20
2018-02-14T00:13:02.461Z,16.45
2018-02-14T00:13:36.224Z,18.92
2018-02-14T00:14:09.918Z,16.37
2018-02-14T00:14:43.608Z,17.70
2018-02-14T00:15:18.257Z,18.10
2018-02-14T00:15:53.154Z,17.58
2018-02-14T00:16:27.161Z,15.80
2018-02-14T00:17:00.871Z,16.80
2018-02-14T00:17:34.738Z,16.75
2018-02-14T00:18:08.865Z,16.30
2018-02-14T00:18:42.541Z,16.60
2018-02-14T00:19:16.213Z,16.90
2018-02-14T00:19:49.885Z,17.83
2018-02-14T00:20:24.326Z,16.75
2018-02-14T00:21:01.157Z,17.62
2018-02-14T00:21:34.883Z,16.35
2018-02-14T00:22:08.226Z,15.10
2018-02-14T00:22:42.670Z,15.65
2018-02-14T00:23:16.972Z,16.15
2018-02-14T00:23:50.701Z,16.40
2018-02-14T00:24:25.150Z,18.20
2018-02-14T00:24:58.960Z,17.02
2018-02-14T00:25:32.644Z,17.73
2018-02-14T00:26:06.326Z,16.85
2018-02-14T00:26:40.023Z,17.35
2018-02-14T00:27:13.706Z,17.77
2018-02-14T00:27:47.388Z,17.42
2018-02-14T00:28:21.057Z,17.20
2018-02-14T00:28:55.510Z,16.70
2018-02-14T00:29:29.190Z,16.10
2018-02-14T00:30:02.862Z,16.80
2018-02-14T00:30:36.559Z,15.05
2018-02-14T00:31:10.230Z,15.43
2018-02-14T00:31:44.698Z,16.80
2018-02-14T00:32:18.386Z,16.37
2018-02-14T00:32:52.055Z,16.70
2018-02-14T00:33:25.749Z,15.70
2018-02-14T00:33:59.432Z,16.12
2018-02-14T00:34:33.140Z,15.50
2018-02-14T00:35:06.818Z,16.33
2018-02-14T00:35:40.494Z,17.55
2018-02-14T00:36:14.174Z,17.05
2018-02-14T00:36:48.124Z,17.60
2018-02-14T00:37:21.794Z,15.85
2018-02-14T00:37:55.466Z,16.50
2018-02-14T00:38:29.156Z,16.87
2018-02-14T00:39:02.846Z,16.80
2018-02-14T00:39:36.531Z,16.77
2018-02-14T00:40:10.201Z,16.17
2018-02-14T00:40:43.867Z,17.10
2018-02-14T00:41:18.302Z,15.68
2018-02-14T00:41:51.998Z,15.63
2018-02-14T00:42:25.673Z,17.48
2018-02-14T00:42:59.381Z,16.52
2018-02-14T00:43:33.062Z,16.23
2018-02-14T00:44:06.736Z,17.33
2018-02-14T00:44:41.179Z,15.82
2018-02-14T00:45:14.855Z,16.92
2018-02-14T00:45:48.526Z,16.70
2018-02-14T00:46:23.019Z,17.33
2018-02-14T00:46:57.493Z,16.75
2018-02-14T00:47:31.182Z,17.40
2018-02-14T00:48:04.853Z,17.00
2018-02-14T00:48:38.531Z,17.05
2018-02-14T00:49:12.213Z,17.40
2018-02-14T00:49:45.881Z,16.00
2018-02-14T00:50:20.327Z,17.55
2018-02-14T00:50:53.661Z,17.67
2018-02-14T00:51:27.339Z,17.45
2018-02-14T00:52:01.033Z,16.02
2018-02-14T00:52:34.696Z,17.35
2018-02-14T00:53:08.390Z,16.90
2018-02-14T00:53:42.073Z,17.45
2018-02-14T00:54:15.751Z,17.17
2018-02-14T00:54:49.423Z,16.98
2018-02-14T00:55:23.092Z,16.33
2018-02-14T00:55:57.533Z,16.17
2018-02-14T00:56:31.201Z,15.80
2018-02-14T00:57:05.182Z,17.80
2018-02-14T00:57:39.629Z,16.70
2018-02-14T00:58:13.316Z,16.17
2018-02-14T00:58:47.006Z,16.90
2018-02-14T00:59:20.681Z,16.73
2018-02-14T00:59:54.350Z,16.85
2018-02-14T01:00:28.786Z,18.00
2018-02-14T01:01:02.482Z,18.52
2018-02-14T01:01:36.152Z,18.73
2018-02-14T01:02:09.848Z,16.85
2018-02-14T01:02:43.520Z,16.77
2018-02-14T01:03:17.965Z,16.65
2018-02-14T01:03:51.649Z,17.55
2018-02-14T01:04:25.319Z,17.95
2018-02-14T01:04:58.998Z,18.10
2018-02-14T01:05:32.681Z,18.15
2018-02-14T01:06:07.137Z,18.75
2018-02-14T01:06:40.821Z,18.05
2018-02-14T01:07:14.532Z,17.05
2018-02-14T01:07:48.211Z,16.60
2018-02-14T01:08:21.891Z,17.95
2018-02-14T01:08:55.573Z,17.75
2018-02-14T01:09:29.241Z,17.25
2018-02-14T01:10:02.913Z,18.00
2018-02-14T01:10:37.362Z,18.60
2018-02-14T01:11:11.029Z,17.70
2018-02-14T01:11:44.707Z,18.50
2018-02-14T01:12:18.426Z,18.98
2018-02-14T01:12:52.098Z,18.37
2018-02-14T01:13:25.790Z,17.10
2018-02-14T01:13:59.458Z,17.55
2018-02-14T01:14:33.897Z,17.95
2018-02-14T01:15:07.570Z,18.50
2018-02-14T01:15:41.247Z,17.62
2018-02-14T01:16:15.690Z,18.23
2018-02-14T01:16:49.361Z,17.52
2018-02-14T01:17:23.066Z,18.37
2018-02-14T01:17:56.766Z,17.83
2018-02-14T01:19:39.364Z,17.35
2018-02-14T01:20:12.862Z,18.25
2018-02-14T01:20:46.539Z,17.87
2018-02-14T01:21:20.202Z,18.12
2018-02-14T01:21:53.890Z,18.35
2018-02-14T01:22:28.365Z,19.10
2018-02-14T01:23:02.026Z,18.37
2018-02-14T01:23:35.705Z,18.95
2018-02-14T01:24:09.386Z,18.70
2018-02-14T01:24:43.062Z,18.42
2018-02-14T01:25:16.749Z,19.40
2018-02-14T01:25:51.185Z,18.30
2018-02-14T01:26:24.870Z,18.65
2018-02-14T01:26:58.561Z,19.42
2018-02-14T01:27:32.266Z,18.02
2018-02-14T01:28:05.942Z,17.70
2018-02-14T01:28:39.666Z,18.73
2018-02-14T01:29:14.263Z,18.45
2018-02-14T01:29:47.929Z,17.85
2018-02-14T01:30:21.593Z,19.87
2018-02-14T01:30:56.036Z,19.40
2018-02-14T01:31:29.718Z,18.62
2018-02-14T01:32:03.405Z,18.50
2018-02-14T01:32:37.102Z,18.10
2018-02-14T01:33:10.784Z,20.90
2018-02-14T01:33:44.456Z,18.45
2018-02-14T01:34:18.141Z,19.70
2018-02-14T01:34:51.821Z,19.85
2018-02-14T01:35:26.261Z,18.52
2018-02-14T01:35:59.925Z,18.87
2018-02-14T01:36:34.367Z,18.80
2018-02-14T01:37:08.043Z,18.70
2018-02-14T01:37:41.758Z,19.55
2018-02-14T01:38:15.447Z,19.35
2018-02-14T01:38:49.117Z,18.83
2018-02-14T01:39:22.806Z,19.90
2018-02-14T01:39:56.146Z,18.77
2018-02-14T01:40:30.591Z,18.40
2018-02-14T01:41:04.258Z,19.62
2018-02-14T01:41:38.694Z,19.12
2018-02-14T01:42:12.376Z,18.85
2018-02-14T01:42:46.454Z,19.73
2018-02-14T01:43:20.889Z,19.73
2018-02-14T01:43:54.573Z,18.55
2018-02-14T01:44:28.249Z,18.70
2018-02-14T01:45:01.916Z,18.85
2018-02-14T01:45:35.586Z,18.87
2018-02-14T01:46:09.275Z,18.80
2018-02-14T01:46:42.943Z,20.80
2018-02-14T01:47:16.629Z,19.50
2018-02-14T01:47:50.685Z,19.30
2018-02-14T01:48:25.136Z,21.10
2018-02-14T01:48:58.811Z,19.60
2018-02-14T01:49:32.493Z,20.00
2018-02-14T01:50:05.511Z,20.65
2018-02-14T01:50:39.800Z,20.73
2018-02-14T01:51:13.489Z,20.12
2018-02-14T01:51:47.171Z,19.08
2018-02-14T01:52:20.841Z,21.30
2018-02-14T01:52:54.542Z,19.52
2018-02-14T01:53:28.212Z,19.60
2018-02-14T01:54:01.885Z,20.05
2018-02-14T01:54:36.334Z,20.10
2018-02-14T01:55:10.007Z,19.25
2018-02-14T01:55:43.672Z,19.73
2018-02-14T01:56:18.138Z,20.08
2018-02-14T01:56:51.819Z,20.20
2018-02-14T01:57:25.502Z,19.77
2018-02-14T01:57:59.226Z,20.15
2018-02-14T01:58:32.904Z,20.02
2018-02-14T01:59:06.584Z,19.85
2018-02-14T01:59:40.266Z,20.58
2018-02-14T02:00:13.622Z,18.90
2018-02-14T02:00:47.298Z,19.98
2018-02-14T02:01:20.978Z,20.08
2018-02-14T02:01:55.430Z,19.20
2018-02-14T02:02:29.102Z,18.40
2018-02-14T02:03:02.805Z,19.75
2018-02-14T02:03:36.482Z,21.02
2018-02-14T02:04:10.167Z,20.33
2018-02-14T02:04:43.838Z,21.67
2018-02-14T02:05:18.285Z,20.30
2018-02-14T02:05:51.978Z,20.02
2018-02-14T02:06:25.657Z,20.15
2018-02-14T02:06:59.333Z,21.10
2018-02-14T02:07:33.014Z,18.95
2018-02-14T02:08:06.700Z,19.70
2018-02-14T02:08:40.393Z,19.62
2018-02-14T02:09:14.073Z,19.45
2018-02-14T02:09:48.512Z,18.98
2018-02-14T02:10:22.177Z,19.58
2018-02-14T02:10:55.857Z,21.40
2018-02-14T02:11:30.307Z,20.15
2018-02-14T02:12:04.014Z,20.83
2018-02-14T02:12:37.690Z,21.23
2018-02-14T02:13:11.936Z,20.60
2018-02-14T02:13:46.374Z,20.23
2018-02-14T02:14:20.050Z,20.70
2018-02-14T02:14:54.495Z,20.85
2018-02-14T02:15:28.193Z,19.83
2018-02-14T02:16:01.874Z,20.98
2018-02-14T02:16:35.566Z,19.15
2018-02-14T02:17:09.242Z,20.23
2018-02-14T02:17:42.916Z,19.95
2018-02-14T02:18:16.625Z,20.48
2018-02-14T02:18:50.492Z,20.37
2018-02-14T02:19:24.593Z,20.40
2018-02-14T02:19:59.033Z,19.67
2018-02-14T02:20:35.019Z,19.67
2018-02-14T02:21:08.869Z,20.15
2018-02-14T02:21:42.561Z,20.25
2018-02-14T02:22:16.263Z,21.02
2018-02-14T02:22:49.937Z,20.98
2018-02-14T02:23:23.635Z,21.92
2018-02-14T02:23:57.424Z,19.62
2018-02-14T02:24:31.094Z,20.67
2018-02-14T02:25:04.421Z,20.42
2018-02-14T02:25:38.086Z,21.62
2018-02-14T02:26:11.778Z,20.40
2018-02-14T02:26:45.460Z,19.90
2018-02-14T02:27:19.141Z,19.90
2018-02-14T02:27:52.819Z,20.27
2018-02-14T02:28:26.521Z,20.73
2018-02-14T02:29:00.195Z,20.77
2018-02-14T02:29:33.874Z,20.73
2018-02-14T02:30:07.561Z,20.10
2018-02-14T02:30:41.666Z,21.08
2018-02-14T02:31:15.363Z,19.30
2018-02-14T02:31:49.040Z,21.98
2018-02-14T02:32:23.489Z,20.77
2018-02-14T02:32:57.160Z,20.52
2018-02-14T02:33:30.886Z,20.83
2018-02-14T02:34:04.562Z,21.37
2018-02-14T02:34:38.249Z,21.60
2018-02-14T02:35:11.939Z,20.83
2018-02-14T02:35:45.614Z,20.98
2018-02-14T02:36:19.288Z,19.17
2018-02-14T02:36:56.013Z,20.20
2018-02-14T02:37:29.695Z,20.42
2018-02-14T02:38:03.372Z,21.00
2018-02-14T02:38:36.760Z,20.50
2018-02-14T02:39:32.560Z,21.02
2018-02-14T02:41:02.905Z,20.02
2018-02-14T02:41:36.593Z,18.95
2018-02-14T02:42:10.267Z,19.02
2018-02-14T02:42:43.946Z,20.65
2018-02-14T02:43:17.626Z,20.00
2018-02-14T02:43:51.418Z,20.25
2018-02-14T02:44:25.094Z,20.45
2018-02-14T02:44:58.754Z,22.10
2018-02-14T02:45:33.198Z,19.75
2018-02-14T02:46:06.879Z,20.10
2018-02-14T02:46:40.552Z,20.27
2018-02-14T02:47:14.986Z,21.48
2018-02-14T02:47:48.666Z,21.20
2018-02-14T02:48:22.328Z,22.15
2018-02-14T02:48:56.802Z,20.45
2018-02-14T02:49:30.473Z,20.77
2018-02-14T02:50:03.833Z,20.90
2018-02-14T02:50:37.515Z,20.95
2018-02-14T02:51:11.183Z,20.05
2018-02-14T02:51:45.690Z,20.52
2018-02-14T02:52:20.125Z,20.83
2018-02-14T02:52:53.802Z,21.10
2018-02-14T02:53:27.489Z,20.90
2018-02-14T02:54:01.967Z,21.48
2018-02-14T02:54:35.649Z,18.75
2018-02-14T02:55:09.323Z,20.00
2018-02-14T02:55:43.013Z,21.50
2018-02-14T02:56:16.702Z,20.65
2018-02-14T02:56:50.370Z,20.48
2018-02-14T02:57:24.049Z,20.92
2018-02-14T02:57:57.763Z,20.15
2018-02-14T02:58:31.443Z,19.65
2018-02-14T02:59:05.150Z,20.50
2018-02-14T02:59:38.834Z,19.87
2018-02-14T03:00:12.755Z,20.10
2018-02-14T03:00:46.426Z,21.00
2018-02-14T03:01:20.118Z,21.15
2018-02-14T03:01:53.797Z,22.10
2018-02-14T03:02:27.466Z,21.70
2018-02-14T03:03:01.153Z,21.60
2018-02-14T03:03:34.828Z,20.58
2018-02-14T03:04:08.536Z,20.95
2018-02-14T03:04:42.210Z,20.75
2018-02-14T03:05:15.883Z,19.23
2018-02-14T03:05:50.322Z,19.98
2018-02-14T03:06:24.006Z,20.62
2018-02-14T03:06:57.690Z,20.58
2018-02-14T03:07:31.361Z,21.60
2018-02-14T03:08:05.798Z,21.73
2018-02-14T03:08:39.469Z,20.90
2018-02-14T03:09:13.158Z,19.95
2018-02-14T03:09:46.833Z,21.00
2018-02-14T03:10:21.264Z,21.15
2018-02-14T03:10:55.004Z,20.98
2018-02-14T03:11:28.710Z,21.27
2018-02-14T03:12:02.384Z,21.65
2018-02-14T03:12:36.048Z,20.27
2018-02-14T03:13:09.722Z,21.42
2018-02-14T03:13:43.401Z,21.33
2018-02-14T03:14:17.102Z,20.20
2018-02-14T03:14:50.786Z,22.00
2018-02-14T03:15:24.462Z,21.80
2018-02-14T03:15:58.907Z,20.88
2018-02-14T03:16:32.577Z,20.48
2018-02-14T03:17:06.265Z,20.33
2018-02-14T03:17:39.944Z,20.50
2018-02-14T03:18:13.612Z,21.15
2018-02-14T03:18:48.043Z,20.45
2018-02-14T03:19:22.021Z,20.75
2018-02-14T03:19:56.457Z,20.33
2018-02-14T03:20:29.946Z,20.85
2018-02-14T03:21:03.630Z,21.42
2018-02-14T03:21:37.311Z,20.98
2018-02-14T03:22:10.982Z,20.95
2018-02-14T03:22:45.454Z,20.52
2018-02-14T03:23:19.134Z,21.60
2018-02-14T03:23:52.798Z,21.02
2018-02-14T03:24:26.559Z,22.17
2018-02-14T03:25:01.046Z,20.20
2018-02-14T03:25:34.715Z,19.40
2018-02-14T03:26:08.382Z,22.35
2018-02-14T03:26:42.050Z,21.10
2018-02-14T03:27:16.494Z,22.75
2018-02-14T03:27:50.159Z,19.52
2018-02-14T03:28:23.841Z,21.12
2018-02-14T03:28:57.522Z,21.73
2018-02-14T03:29:31.995Z,21.75
2018-02-14T03:30:05.666Z,22.75
2018-02-14T03:30:39.351Z,20.80
2018-02-14T03:31:13.025Z,21.62
2018-02-14T03:31:46.697Z,19.42
2018-02-14T03:32:20.393Z,21.33
2018-02-14T03:32:54.074Z,20.88
2018-02-14T03:33:27.757Z,20.50
2018-02-14T03:34:02.208Z,20.95
2018-02-14T03:34:36.159Z,19.90
2018-02-14T03:35:10.612Z,20.98
2018-02-14T03:35:44.302Z,23.33
2018-02-14T03:36:17.990Z,19.60
2018-02-14T03:36:51.649Z,22.02
2018-02-14T03:37:25.338Z,21.42
2018-02-14T03:37:59.028Z,20.15
2018-02-14T03:38:32.718Z,20.35
2018-02-14T03:39:05.734Z,21.00
2018-02-14T03:39:39.434Z,20.05
2018-02-14T03:40:13.121Z,20.52
2018-02-14T03:40:46.811Z,21.25
2018-02-14T03:41:20.490Z,22.17
2018-02-14T03:41:54.172Z,23.20
2018-02-14T03:42:27.862Z,21.83
2018-02-14T03:43:01.365Z,20.40
2018-02-14T03:43:34.853Z,19.37
2018-02-14T03:44:08.522Z,20.77
2018-02-14T03:44:41.901Z,22.30
2018-02-14T03:45:15.594Z,21.12
2018-02-14T03:45:49.090Z,21.83
2018-02-14T03:46:22.771Z,20.25
2018-02-14T03:46:56.461Z,20.88
2018-02-14T03:47:30.133Z,20.23
2018-02-14T03:48:03.806Z,21.08
2018-02-14T03:48:37.497Z,19.37
2018-02-14T03:49:11.183Z,19.60
2018-02-14T03:49:44.907Z,20.77
2018-02-14T03:50:18.594Z,21.77
2018-02-14T03:50:52.288Z,21.10
2018-02-14T03:51:25.994Z,21.05
2018-02-14T03:51:59.673Z,20.85
2018-02-14T03:52:33.387Z,21.00
2018-02-14T03:53:07.066Z,20.65
2018-02-14T03:53:40.741Z,21.33
2018-02-14T03:54:14.423Z,21.42
2018-02-14T03:54:48.118Z,20.42
2018-02-14T03:55:21.803Z,21.92
2018-02-14T03:55:55.498Z,20.40
2018-02-14T03:56:29.185Z,23.02
2018-02-14T03:57:02.695Z,20.55
2018-02-14T03:57:36.181Z,19.25
2018-02-14T03:58:09.666Z,21.48
2018-02-14T03:58:43.333Z,20.85
2018-02-14T03:59:16.818Z,22.00
2018-02-14T03:59:50.326Z,20.85
2018-02-14T04:00:23.987Z,22.00
2018-02-14T04:00:57.658Z,21.00
2018-02-14T04:01:31.334Z,19.90
2018-02-14T04:02:05.012Z,20.85
2018-02-14T04:02:39.457Z,19.73
2018-02-14T04:03:13.120Z,21.08
2018-02-14T04:03:46.800Z,21.98
2018-02-14T04:04:21.243Z,21.87
2018-02-14T04:04:54.755Z,21.70
2018-02-14T04:05:28.494Z,21.45
2018-02-14T04:06:01.982Z,21.50
2018-02-14T04:06:40.596Z,20.62
2018-02-14T04:07:14.277Z,20.42
2018-02-14T04:07:47.955Z,20.02
2018-02-14T04:08:22.395Z,20.77
2018-02-14T04:08:56.067Z,21.67
2018-02-14T04:09:29.741Z,21.85
2018-02-14T04:10:03.874Z,20.62
2018-02-14T04:10:37.541Z,20.90
2018-02-14T04:11:11.989Z,22.00
2018-02-14T04:11:45.671Z,20.45
2018-02-14T04:12:19.346Z,20.80
2018-02-14T04:12:53.016Z,23.25
2018-02-14T04:13:26.706Z,20.98
2018-02-14T04:14:01.148Z,22.10
2018-02-14T04:14:34.811Z,21.25
2018-02-14T04:15:08.522Z,21.50
2018-02-14T04:15:42.189Z,21.75
2018-02-14T04:16:16.628Z,21.00
2018-02-14T04:16:50.310Z,21.83
2018-02-14T04:17:24.008Z,20.73
2018-02-14T04:17:57.690Z,20.85
2018-02-14T04:18:31.039Z,22.02
2018-02-14T04:19:05.491Z,20.73
2018-02-14T04:19:39.165Z,20.25
2018-02-14T04:20:12.867Z,20.30
2018-02-14T04:20:46.546Z,21.35
2018-02-14T04:21:20.248Z,21.20
2018-02-14T04:21:53.937Z,21.00
2018-02-14T04:22:27.613Z,21.27
2018-02-14T04:23:01.290Z,20.62
2018-02-14T04:23:34.793Z,20.60
2018-02-14T04:24:08.301Z,21.73
2018-02-14T04:24:41.798Z,20.80
2018-02-14T04:25:15.522Z,20.98
2018-02-14T04:25:49.967Z,22.13
2018-02-14T04:26:23.456Z,20.83
2018-02-14T04:26:56.799Z,22.10
2018-02-14T04:27:30.490Z,19.60
2018-02-14T04:28:03.976Z,21.30
2018-02-14T04:28:37.461Z,20.75
2018-02-14T04:29:11.153Z,20.33
2018-02-14T04:29:44.826Z,22.17
2018-02-14T04:30:22.521Z,21.85
2018-02-14T04:30:56.990Z,22.77
2018-02-14T04:31:30.658Z,21.73
2018-02-14T04:32:04.345Z,21.80
2018-02-14T04:32:38.003Z,22.70
2018-02-14T04:33:11.685Z,21.52
2018-02-14T04:33:46.125Z,21.48
2018-02-14T04:34:19.789Z,21.10
2018-02-14T04:34:53.467Z,22.92
2018-02-14T04:35:27.948Z,21.37
2018-02-14T04:36:01.613Z,21.70
2018-02-14T04:36:35.326Z,21.60
2018-02-14T04:37:09.051Z,22.42
2018-02-14T04:37:42.897Z,21.98
2018-02-14T04:38:16.565Z,22.42
2018-02-14T04:38:50.230Z,21.25
2018-02-14T04:39:23.913Z,21.62
2018-02-14T04:39:58.341Z,21.77
2018-02-14T04:40:32.312Z,21.67
2018-02-14T04:41:06.568Z,23.50
2018-02-14T04:41:40.446Z,24.45
2018-02-14T04:42:14.126Z,24.37
2018-02-14T04:42:47.794Z,23.58
2018-02-14T04:43:22.233Z,24.40
2018-02-14T04:43:55.894Z,24.12
2018-02-14T04:44:30.330Z,22.85
2018-02-14T04:45:03.677Z,21.08
2018-02-14T04:45:38.146Z,21.17
2018-02-14T04:46:11.835Z,21.48
2018-02-14T04:46:45.518Z,21.30
2018-02-14T04:47:19.188Z,20.83
2018-02-14T04:47:52.873Z,22.80
2018-02-14T04:48:26.537Z,20.48
2018-02-14T04:49:00.225Z,21.30
2018-02-14T04:49:33.910Z,23.30
2018-02-14T04:50:08.357Z,20.75
2018-02-14T04:50:42.418Z,23.27
2018-02-14T04:51:16.861Z,21.73
2018-02-14T04:51:50.528Z,22.13
2018-02-14T04:52:24.195Z,20.90
2018-02-14T04:52:58.638Z,22.42
2018-02-14T04:53:32.302Z,20.25
2018-02-14T04:54:06.737Z,22.85
2018-02-14T04:54:40.405Z,22.33
2018-02-14T04:55:14.091Z,23.02
2018-02-14T04:55:48.580Z,21.80
2018-02-14T04:56:23.009Z,21.05
2018-02-14T04:56:56.694Z,21.48
2018-02-14T04:57:31.134Z,22.37
2018-02-14T04:58:04.842Z,21.52
2018-02-14T04:58:38.510Z,20.42
2018-02-14T04:59:12.175Z,21.87
2018-02-14T04:59:45.854Z,21.12
2018-02-14T05:00:20.494Z,21.92
2018-02-14T05:00:54.215Z,22.05
2018-02-14T05:01:27.905Z,21.92
2018-02-14T05:02:01.595Z,22.58
2018-02-14T05:02:35.266Z,23.00
2018-02-14T05:03:08.932Z,23.38
2018-02-14T05:03:42.606Z,22.55
2018-02-14T05:04:17.041Z,23.50
2018-02-14T05:04:50.713Z,21.33
2018-02-14T05:05:24.397Z,22.27
2018-02-14T05:05:58.855Z,22.33
2018-02-14T05:06:32.354Z,22.05
2018-02-14T05:07:06.022Z,22.10
2018-02-14T05:07:39.700Z,21.42
2018-02-14T05:08:13.379Z,22.70
2018-02-14T05:08:47.045Z,23.35
2018-02-14T05:09:21.495Z,22.15
2018-02-14T05:09:55.169Z,21.02
2018-02-14T05:10:28.834Z,21.10
2018-02-14T05:11:03.648Z,21.42
2018-02-14T05:11:38.094Z,20.83
2018-02-14T05:12:11.771Z,21.12
2018-02-14T05:12:45.454Z,20.45
2018-02-14T05:13:19.120Z,21.48
2018-02-14T05:13:53.578Z,21.60
2018-02-14T05:14:27.253Z,21.10
2018-02-14T05:15:00.918Z,21.98
2018-02-14T05:15:35.350Z,22.23
2018-02-14T05:16:09.056Z,22.50
2018-02-14T05:16:42.747Z,20.37
2018-02-14T05:17:16.470Z,21.42
2018-02-14T05:17:50.917Z,21.35
2018-02-14T05:18:24.581Z,22.15
2018-02-14T05:18:59.027Z,22.52
2018-02-14T05:19:32.710Z,21.65
2018-02-14T05:20:06.390Z,21.10
2018-02-14T05:20:40.058Z,21.02
2018-02-14T05:21:14.523Z,20.75
2018-02-14T05:21:48.210Z,22.70
2018-02-14T05:22:21.891Z,21.67
2018-02-14T05:22:55.602Z,20.95
2018-02-14T05:23:29.285Z,22.83
2018-02-14T05:24:03.168Z,22.30
2018-02-14T05:24:36.868Z,21.40
2018-02-14T05:25:10.459Z,23.70
2018-02-14T05:25:44.184Z,22.50
2018-02-14T05:26:18.319Z,23.15
2018-02-14T05:26:51.998Z,22.98
2018-02-14T05:27:25.667Z,21.25
2018-02-14T05:28:00.101Z,23.67
2018-02-14T05:28:33.788Z,20.92
2018-02-14T05:29:07.465Z,22.52
2018-02-14T05:29:41.143Z,22.77
2018-02-14T05:30:15.579Z,21.77
2018-02-14T05:30:49.267Z,22.25
2018-02-14T05:31:22.972Z,22.27
2018-02-14T05:31:56.665Z,21.20
2018-02-14T05:32:30.355Z,22.25
2018-02-14T05:33:04.045Z,23.58
2018-02-14T05:33:37.721Z,23.73
2018-02-14T05:34:11.583Z,23.67
2018-02-14T05:34:46.024Z,23.10
2018-02-14T05:35:19.726Z,24.83
2018-02-14T05:35:53.402Z,24.65
2018-02-14T05:36:27.105Z,24.50
2018-02-14T05:37:00.786Z,23.48
2018-02-14T05:37:34.463Z,23.50
2018-02-14T05:38:08.140Z,23.70
2018-02-14T05:38:42.575Z,24.10
2018-02-14T05:39:16.248Z,23.83
2018-02-14T05:39:49.918Z,24.20
2018-02-14T05:40:24.369Z,24.27
2018-02-14T05:40:58.051Z,23.05
2018-02-14T05:41:31.764Z,23.75
2018-02-14T05:42:05.435Z,22.25
2018-02-14T05:42:39.126Z,23.55
2018-02-14T05:43:13.240Z,22.92
2018-02-14T05:43:46.913Z,22.35
2018-02-14T05:44:20.591Z,24.52
2018-02-14T05:44:54.273Z,23.20
2018-02-14T05:45:27.944Z,24.23
2018-02-14T05:46:02.382Z,21.75
2018-02-14T05:46:36.098Z,23.60
2018-02-14T05:47:09.808Z,23.00
2018-02-14T05:47:43.474Z,23.55
2018-02-14T05:48:17.151Z,24.52
2018-02-14T05:48:50.818Z,23.55
2018-02-14T05:49:24.483Z,23.08
2018-02-14T05:49:58.925Z,25.95
2018-02-14T05:50:32.625Z,23.25
2018-02-14T05:51:06.326Z,22.50
2018-02-14T05:51:40.016Z,24.12
2018-02-14T05:52:13.695Z,22.17
2018-02-14T05:52:47.371Z,25.15
2018-02-14T05:53:21.066Z,22.48
2018-02-14T05:53:54.559Z,23.20
2018-02-14T05:54:28.235Z,23.48
2018-02-14T05:55:01.916Z,23.35
2018-02-14T05:55:35.586Z,24.37
2018-02-14T05:56:10.036Z,24.63
2018-02-14T05:56:43.738Z,23.48
2018-02-14T05:57:17.419Z,22.92
2018-02-14T05:57:51.077Z,24.45
2018-02-14T05:58:25.519Z,22.40
2018-02-14T05:58:59.184Z,23.85
2018-02-14T05:59:32.872Z,25.02
2018-02-14T06:00:06.357Z,22.55
2018-02-14T06:00:40.051Z,24.00
2018-02-14T06:01:13.742Z,25.17
2018-02-14T06:01:47.498Z,23.67
2018-02-14T06:02:21.218Z,22.98
2018-02-14T06:02:54.892Z,24.75
2018-02-14T06:03:29.330Z,24.60
2018-02-14T06:04:03.007Z,23.60
2018-02-14T06:04:36.685Z,23.58
2018-02-14T06:05:11.137Z,23.85
2018-02-14T06:05:44.810Z,24.02
2018-02-14T06:06:18.473Z,24.92
2018-02-14T06:06:53.081Z,25.65
2018-02-14T06:07:27.524Z,26.73
2018-02-14T06:08:01.192Z,25.62
2018-02-14T06:08:35.098Z,24.77
2018-02-14T06:09:08.593Z,24.52
2018-02-14T06:09:42.261Z,26.25
2018-02-14T06:10:15.949Z,25.42
2018-02-14T06:10:49.655Z,25.80
2018-02-14T06:11:23.342Z,23.77
2018-02-14T06:11:57.330Z,26.48
2018-02-14T06:12:31.002Z,25.50
2018-02-14T06:13:05.442Z,27.80
2018-02-14T06:13:39.111Z,25.23
2018-02-14T06:14:12.790Z,25.62
2018-02-14T06:14:47.309Z,26.20
2018-02-14T06:15:20.999Z,25.55
2018-02-14T06:15:54.487Z,25.05
2018-02-14T06:16:28.205Z,26.65
2018-02-14T06:17:01.903Z,26.90
2018-02-14T06:17:35.578Z,25.83
2018-02-14T06:18:09.235Z,27.48
2018-02-14T06:18:43.678Z,26.95
2018-02-14T06:19:17.343Z,28.30
2018-02-14T06:19:51.030Z,28.25
2018-02-14T06:20:24.705Z,26.50
2018-02-14T06:20:59.126Z,26.17
2018-02-14T06:21:32.808Z,26.23
2018-02-14T06:22:06.498Z,26.73
2018-02-14T06:22:40.939Z,27.30
2018-02-14T06:23:14.600Z,25.90
2018-02-14T06:23:48.282Z,24.90
2018-02-14T06:24:22.521Z,26.50
2018-02-14T06:24:55.525Z,26.40
2018-02-14T06:25:29.230Z,26.20
2018-02-14T06:26:02.923Z,26.77
2018-02-14T06:26:37.390Z,29.05
2018-02-14T06:27:11.148Z,24.75
2018-02-14T06:27:44.831Z,27.98
2018-02-14T06:28:19.291Z,26.92
2018-02-14T06:28:52.958Z,26.77
2018-02-14T06:29:26.622Z,26.33
2018-02-14T06:30:01.124Z,26.15
2018-02-14T06:30:35.560Z,24.95
2018-02-14T06:31:09.241Z,25.55
2018-02-14T06:31:42.918Z,25.12
2018-02-14T06:32:16.618Z,24.35
2018-02-14T06:32:50.287Z,26.52
2018-02-14T06:33:24.740Z,26.35
2018-02-14T06:33:58.437Z,25.85
2018-02-14T06:34:32.175Z,26.25
2018-02-14T06:35:06.622Z,24.45
2018-02-14T06:35:40.293Z,25.60
2018-02-14T06:36:13.967Z,26.15
2018-02-14T06:36:47.652Z,24.10
2018-02-14T06:37:22.127Z,25.05
2018-02-14T06:37:55.802Z,23.75
2018-02-14T06:38:29.472Z,24.83
2018-02-14T06:39:02.639Z,25.67
2018-02-14T06:39:36.307Z,24.83
2018-02-14T06:40:10.756Z,25.10
2018-02-14T06:40:44.459Z,25.50
2018-02-14T06:41:18.149Z,26.80
2018-02-14T06:41:51.821Z,25.50
2018-02-14T06:42:25.875Z,25.50
2018-02-14T06:43:00.306Z,26.20
2018-02-14T06:43:33.982Z,25.00
2018-02-14T06:44:08.432Z,26.60
2018-02-14T06:44:42.102Z,25.65
2018-02-14T06:45:15.820Z,25.62
2018-02-14T06:45:49.512Z,26.50
2018-02-14T06:46:23.183Z,26.87
2018-02-14T06:46:56.865Z,26.55
2018-02-14T06:47:30.561Z,26.50
2018-02-14T06:48:04.230Z,25.73
2018-02-14T06:48:37.907Z,24.55
2018-02-14T06:49:12.374Z,25.20
2018-02-14T06:49:46.044Z,27.17
2018-02-14T06:50:19.718Z,31.02
2018-02-14T06:50:53.381Z,32.20
2018-02-14T06:51:27.820Z,34.85
2018-02-14T06:52:01.495Z,37.72
2018-02-14T06:52:35.205Z,39.05
2018-02-14T06:53:08.562Z,38.03
2018-02-14T06:53:42.292Z,40.28
2018-02-14T06:54:16.138Z,36.92
2018-02-14T06:54:50.569Z,32.55
2018-02-14T06:55:24.245Z,26.83
2018-02-14T06:55:57.922Z,25.08
2018-02-14T06:56:31.611Z,24.48
2018-02-14T06:57:06.051Z,24.67
2018-02-14T06:57:39.758Z,25.00
2018-02-14T06:58:13.434Z,24.27
2018-02-14T06:58:47.106Z,25.20
2018-02-14T06:59:20.777Z,25.20
2018-02-14T06:59:55.214Z,25.55
2018-02-14T07:00:28.903Z,25.58
2018-02-14T07:01:02.565Z,23.92
2018-02-14T07:01:37.011Z,24.30
2018-02-14T07:02:10.710Z,24.33
2018-02-14T07:02:44.417Z,24.17
2018-02-14T07:03:18.094Z,25.73
2018-02-14T07:03:51.768Z,24.25
2018-02-14T07:04:25.450Z,24.52
2018-02-14T07:04:59.125Z,24.10
2018-02-14T07:05:32.805Z,25.65
2018-02-14T07:06:06.494Z,25.35
2018-02-14T07:06:40.179Z,26.08
2018-02-14T07:07:14.610Z,24.42
2018-02-14T07:07:48.316Z,25.70
2018-02-14T07:08:22.001Z,25.17
2018-02-14T07:08:55.683Z,23.55
2018-02-14T07:09:29.353Z,24.15
2018-02-14T07:10:02.370Z,25.60
2018-02-14T07:10:36.060Z,23.27
2018-02-14T07:11:09.736Z,24.73
2018-02-14T07:11:43.435Z,24.23
2018-02-14T07:12:17.125Z,23.62
2018-02-14T07:12:51.189Z,25.23
2018-02-14T07:13:24.858Z,26.98
2018-02-14T07:13:59.322Z,24.70
2018-02-14T07:14:32.830Z,27.30
2018-02-14T07:15:06.483Z,26.95
2018-02-14T07:15:40.150Z,27.17
2018-02-14T07:16:13.815Z,26.50
2018-02-14T07:16:48.259Z,24.10
2018-02-14T07:17:21.936Z,25.02
2018-02-14T07:17:55.665Z,25.55